»·PEaware :: N50D KLAX-KSAN

N50D :: KLAX-KSAN

FLIGHT INFORMATION

Flight Status: Arrived
Operator: Privately registered:
United States
More flights under this callsign
Pilot: Joseph H. (15856)
Aircraft: CESSNA 172 SKYHAWK
(C172)
More flights by this aircraft type
Origin: KLAX Los Angeles Intl
United States
Destination: KSAN San Diego Intl-Lindbergh
United States
More flights between these airports :: More routes between these airports
Route: +
File this flight plan on PilotEdge
Remarks:
Altitude:
(Current/Filed)
0ft
Speed:
(Current/Filed)
0kts
Departed: 27-Sep-17 12:25 PM
Arrived: 27-Sep-17 01:26 PM
Distance/Time
Traveled:
95nm/1:01
Distance/Time
To Go:
Arrived

Flight Plot

Page will automatically refresh every two minutes.


Map Options




Map Legend


Flown Route
Filed Route
Departure Airport
Arrival Airport
Navaid (VOR, NDB)
Fix

Horizontal Profiles

Position Reports

Time Latitude Longitude Heading Altitude Ground
Speed
27-Sep-17 12:15 33.940319 -118.397617 57 116ft 0kts
27-Sep-17 12:16 33.940319 -118.397617 57 116ft 0kts
27-Sep-17 12:17 33.940319 -118.397617 57 116ft 0kts
27-Sep-17 12:18 33.940319 -118.397617 57 116ft 0kts
27-Sep-17 12:19 33.940319 -118.397617 57 116ft 0kts
27-Sep-17 12:20 33.940319 -118.397617 57 116ft 0kts
27-Sep-17 12:21 33.940319 -118.397617 57 116ft 0kts
27-Sep-17 12:22 33.940299 -118.397519 152 115ft 0kts
27-Sep-17 12:23 33.939114 -118.396723 85 110ft 16kts
27-Sep-17 12:24 33.939806 -118.389472 82 102ft 24kts
27-Sep-17 12:25 33.940390 -118.383347 205 99ft 0kts
27-Sep-17 12:26 33.940330 -118.383354 161 99ft 0kts
27-Sep-17 12:27 33.940330 -118.383354 161 99ft 0kts
27-Sep-17 12:28 33.940313 -118.383345 153 99ft 0kts
27-Sep-17 12:29 33.938445 -118.394547 267 259ft 78kts
27-Sep-17 12:30 33.936210 -118.423341 265 900ft 95kts
27-Sep-17 12:31 33.933365 -118.456536 265 1515ft 102kts
27-Sep-17 12:32 33.915468 -118.472821 158 2115ft 112kts
27-Sep-17 12:33 33.895429 -118.462499 172 2588ft 107kts
27-Sep-17 12:34 33.870625 -118.456756 170 2994ft 117kts
27-Sep-17 12:35 33.837052 -118.449061 171 2981ft 123kts
27-Sep-17 12:36 33.806036 -118.442432 171 3424ft 100kts
27-Sep-17 12:37 33.774106 -118.435724 171 3508ft 129kts
27-Sep-17 12:38 33.739760 -118.428389 171 3839ft 115kts
27-Sep-17 12:39 33.710948 -118.419923 158 4503ft 101kts
27-Sep-17 12:40 33.685709 -118.407279 157 5186ft 96kts
27-Sep-17 12:41 33.661814 -118.393383 144 5827ft 97kts
27-Sep-17 12:42 33.638813 -118.375309 144 6431ft 100kts
27-Sep-17 12:43 33.615476 -118.357363 144 7029ft 99kts
27-Sep-17 12:44 33.592169 -118.339848 144 7534ft 106kts
27-Sep-17 12:45 33.564345 -118.318479 144 7525ft 124kts
27-Sep-17 12:46 33.535211 -118.295796 141 7529ft 124kts
27-Sep-17 12:47 33.515910 -118.262316 119 7532ft 122kts
27-Sep-17 12:48 33.497236 -118.228408 119 7530ft 122kts
27-Sep-17 12:49 33.479608 -118.193959 104 7528ft 119kts
27-Sep-17 12:50 33.468435 -118.156423 106 7520ft 118kts
27-Sep-17 12:51 33.457934 -118.120991 105 7513ft 110kts
27-Sep-17 12:52 33.447740 -118.086514 105 7505ft 109kts
27-Sep-17 12:53 33.437683 -118.052483 105 7503ft 108kts
27-Sep-17 12:54 33.427590 -118.018303 105 7506ft 108kts
27-Sep-17 12:55 33.417542 -117.984225 105 7508ft 108kts
27-Sep-17 12:56 33.407527 -117.950215 105 7509ft 108kts
27-Sep-17 12:57 33.397476 -117.916035 105 7510ft 108kts
27-Sep-17 12:58 33.387473 -117.881986 105 7509ft 108kts
27-Sep-17 12:59 33.376908 -117.848230 113 7507ft 109kts
27-Sep-17 13:00 33.358762 -117.818849 129 7507ft 110kts
27-Sep-17 13:01 33.336790 -117.793136 134 7509ft 110kts
27-Sep-17 13:02 33.313726 -117.768783 136 7510ft 110kts
27-Sep-17 13:03 33.290418 -117.744966 136 7511ft 110kts
27-Sep-17 13:04 33.267057 -117.721350 136 7505ft 110kts
27-Sep-17 13:05 33.243556 -117.697684 136 7502ft 110kts
27-Sep-17 13:06 33.220093 -117.674091 136 7502ft 110kts
27-Sep-17 13:07 33.196676 -117.650567 136 7502ft 110kts
27-Sep-17 13:08 33.173193 -117.626996 136 7502ft 110kts
27-Sep-17 13:09 33.149671 -117.603409 136 7502ft 110kts
27-Sep-17 13:10 33.126204 -117.579898 136 7502ft 110kts
27-Sep-17 13:11 33.102567 -117.556303 136 7503ft 111kts
27-Sep-17 13:12 33.078730 -117.532614 137 7503ft 111kts
27-Sep-17 13:13 33.054327 -117.508234 137 7197ft 119kts
27-Sep-17 13:14 33.030004 -117.484074 138 6585ft 111kts
27-Sep-17 13:15 33.005283 -117.463410 128 5982ft 109kts
27-Sep-17 13:16 32.983463 -117.437865 137 5390ft 111kts
27-Sep-17 13:17 32.959851 -117.413968 139 4801ft 112kts
27-Sep-17 13:18 32.935860 -117.390041 140 4213ft 113kts
27-Sep-17 13:19 32.912340 -117.364829 136 3624ft 114kts
27-Sep-17 13:20 32.893244 -117.341913 136 3532ft 113kts
27-Sep-17 13:21 32.870296 -117.314734 136 3525ft 116kts
27-Sep-17 13:22 32.847816 -117.289150 140 3526ft 109kts
27-Sep-17 13:23 32.823890 -117.265112 141 3124ft 117kts
27-Sep-17 13:24 32.800554 -117.241348 143 2513ft 116kts
27-Sep-17 13:25 32.779453 -117.220311 143 1839ft 102kts
27-Sep-17 13:26 32.762546 -117.203192 143 1278ft 99kts
27-Sep-17 13:27 32.745486 -117.184826 130 1135ft 103kts
27-Sep-17 13:28 32.733427 -117.162654 195 830ft 71kts
27-Sep-17 13:29 32.731366 -117.180918 286 87ft 54kts
27-Sep-17 13:30 32.734141 -117.188070 10 21ft 0kts
27-Sep-17 13:31 32.734279 -117.188070 338 21ft 0kts
27-Sep-17 13:32 32.735359 -117.188087 7 21ft 0kts
27-Sep-17 13:33 32.735358 -117.188088 9 21ft 0kts
27-Sep-17 13:34 32.735358 -117.188088 9 21ft 0kts

Navigation Log

Ident Type
1. KLAX Airport
2. KSAN Airport